Time;durP1;ratioP1;P1;durP2;ratioP2;P2;SDS_P1;SDS_P2;PMS_P1;PMS_P2;Temp;Humidity;BMP_temperature;BMP_pressure;BME280_temperature;BME280_humidity;BME280_pressure;Samples;Min_cycle;Max_cycle;Signal;HPM_P1;HPM_P2
2021/06/23 00:01:54;;;;;;;;;49.33;41.33;;;;;16.33;69.89;101338.25;5080381;28;45828;-59
2021/06/23 00:04:20;;;;;;;;;50.50;40.75;;;;;16.33;69.97;101340.91;5080336;27;45835;-59
2021/06/23 00:06:45;;;;;;;;;37.00;35.00;;;;;16.32;70.22;101339.28;5079636;27;55039;-60
2021/06/23 00:09:10;;;;;;;;;44.33;39.33;;;;;16.30;70.30;101335.94;5079712;27;59578;-59
2021/06/23 00:11:46;;;;;;;;;46.67;38.00;;;;;16.30;70.38;101329.75;5079660;27;57732;-60
2021/06/23 00:14:12;;;;;;;;;48.67;40.67;;;;;16.28;70.46;101328.09;5079829;28;45750;-59
2021/06/23 00:16:37;;;;;;;;;37.33;35.00;;;;;16.28;70.67;101333.47;5079967;27;46077;-59
2021/06/23 00:19:02;;;;;;;;;41.00;34.33;;;;;16.28;70.22;101336.16;5080131;27;45369;-59
2021/06/23 00:21:28;;;;;;;;;41.67;36.00;;;;;16.28;70.24;101335.31;5079617;28;54093;-60
2021/06/23 00:23:53;;;;;;;;;39.33;35.67;;;;;16.27;70.39;101326.47;5079471;28;63682;-60
2021/06/23 00:26:19;;;;;;;;;42.67;35.67;;;;;16.27;70.12;101339.88;5079678;28;45389;-59
2021/06/23 00:28:44;;;;;;;;;47.00;39.00;;;;;16.27;70.28;101339.88;5079763;28;54268;-59
2021/06/23 00:31:09;;;;;;;;;43.00;34.00;;;;;16.25;70.61;101341.91;5094467;27;60916;-59
2021/06/23 00:33:35;;;;;;;;;40.67;35.00;;;;;16.26;70.77;101343.56;5100218;27;46103;-60
2021/06/23 00:36:00;;;;;;;;;37.33;35.33;;;;;16.26;70.31;101343.56;5100167;27;52069;-59
2021/06/23 00:38:26;;;;;;;;;36.67;34.00;;;;;16.26;70.45;101343.56;5099986;27;46577;-60
2021/06/23 00:40:51;;;;;;;;;43.00;34.00;;;;;16.26;70.42;101343.56;5100454;27;45325;-59
2021/06/23 00:43:16;;;;;;;;;42.67;36.00;;;;;16.25;70.29;101341.91;5098844;27;52709;-60
2021/06/23 00:45:43;;;;;;;;;38.00;36.00;;;;;16.25;69.98;101344.59;5081089;27;61467;-59
2021/06/23 00:48:10;;;;;;;;;42.67;37.67;;;;;16.25;70.44;101344.59;5082130;27;45261;-59
2021/06/23 00:50:36;;;;;;;;;47.33;38.67;;;;;16.24;70.50;101353.66;5098723;27;45549;-59
2021/06/23 00:53:01;;;;;;;;;33.00;25.33;;;;;16.25;70.81;101349.16;5098085;27;64290;-60
2021/06/23 00:55:26;;;;;;;;;36.67;34.33;;;;;16.24;70.26;101355.50;5098030;27;67435;-59
2021/06/23 00:57:53;;;;;;;;;40.67;37.00;;;;;16.24;70.41;101356.34;5081869;27;45307;-59
2021/06/23 01:00:19;;;;;;;;;48.33;37.33;;;;;16.23;70.32;101359.22;5098888;27;45329;-59
2021/06/23 01:02:46;;;;;;;;;41.00;38.00;;;;;16.22;70.64;101355.72;5098703;27;45355;-59
2021/06/23 01:05:11;;;;;;;;;39.33;34.67;;;;;16.20;70.93;101355.09;5081616;27;46154;-60
2021/06/23 01:07:37;;;;;;;;;38.67;33.67;;;;;16.18;70.58;101351.78;5081427;27;45243;-59
2021/06/23 01:10:02;;;;;;;;;40.33;36.33;;;;;16.18;70.94;101351.78;5080901;27;65450;-60
2021/06/23 01:12:27;;;;;;;;;46.00;38.00;;;;;16.17;70.78;101352.81;5081522;27;45413;-60
2021/06/23 01:14:54;;;;;;;;;38.00;35.33;;;;;16.18;71.28;101350.94;5099760;27;45247;-60
2021/06/23 01:17:20;;;;;;;;;42.00;37.00;;;;;16.16;70.78;101348.44;5100028;27;45310;-59
2021/06/23 01:19:46;;;;;;;;;43.33;38.00;;;;;16.15;71.14;101357.53;5099937;27;45300;-59
2021/06/23 01:22:14;;;;;;;;;38.00;35.00;;;;;16.14;70.84;101353.19;5081354;27;45439;-59
2021/06/23 01:24:40;;;;;;;;;36.67;34.33;;;;;16.14;71.24;101350.50;5099692;27;46149;-59
2021/06/23 01:27:05;;;;;;;;;37.33;34.33;;;;;16.12;71.22;101347.19;5099468;27;45343;-59
2021/06/23 01:29:31;;;;;;;;;37.67;29.33;;;;;16.10;71.51;101350.06;5097455;27;45396;-59
2021/06/23 01:31:56;;;;;;;;;39.67;35.67;;;;;16.10;71.41;101349.25;5078627;27;59617;-59
2021/06/23 01:34:21;;;;;;;;;46.00;38.00;;;;;16.09;71.43;101347.56;5078747;27;57118;-60
2021/06/23 01:36:47;;;;;;;;;39.67;35.67;;;;;16.08;71.43;101344.09;5078432;27;65068;-59
2021/06/23 01:39:12;;;;;;;;;36.33;34.33;;;;;16.08;71.80;101343.25;5081469;27;59934;-59
2021/06/23 01:41:38;;;;;;;;;48.00;37.67;;;;;16.08;71.54;101345.94;5082015;27;61504;-59
2021/06/23 01:44:04;;;;;;;;;43.33;36.33;;;;;16.08;71.45;101343.25;5082278;27;46072;-59
2021/06/23 01:46:29;;;;;;;;;37.33;35.33;;;;;16.07;71.43;101349.66;5082485;27;45145;-59
2021/06/23 01:48:55;;;;;;;;;41.33;33.00;;;;;16.05;71.54;101341.78;5082065;27;58460;-60
2021/06/23 01:51:21;;;;;;;;;37.33;35.33;;;;;16.03;71.65;101341.16;5082049;27;45357;-60
2021/06/23 01:53:46;;;;;;;;;41.67;35.67;;;;;16.05;71.47;101335.59;5081492;27;67942;-60
2021/06/23 01:56:11;;;;;;;;;38.00;35.33;;;;;16.04;71.71;101334.75;5081727;27;63052;-60
2021/06/23 01:58:39;;;;;;;;;35.67;31.00;;;;;16.05;71.71;101332.91;5082546;27;45842;-60
2021/06/23 02:01:16;;;;;;;;;43.00;36.00;;;;;16.03;71.85;101330.44;5080791;28;46103;-59
2021/06/23 02:03:54;;;;;;;;;31.67;27.33;;;;;16.03;71.93;101336.63;5082168;27;46134;-59
2021/06/23 02:06:34;;;;;;;;;36.00;34.33;;;;;16.02;71.64;101331.47;5082093;27;45327;-59
2021/06/23 02:09:18;;;;;;;;;38.00;32.67;;;;;16.01;71.55;101335.16;5082331;27;45343;-59
2021/06/23 02:11:47;;;;;;;;;32.33;30.00;;;;;16.00;71.54;101328.97;5081964;28;45322;-59
2021/06/23 02:14:23;;;;;;;;;42.00;34.00;;;;;16.00;71.41;101336.19;5097553;27;46306;-59
2021/06/23 02:16:48;;;;;;;;;36.00;31.33;;;;;15.99;71.26;101338.06;5097424;27;45391;-59
2021/06/23 02:19:14;;;;;;;;;36.00;32.00;;;;;16.00;71.72;101339.69;5081999;27;45225;-60
2021/06/23 02:21:39;;;;;;;;;38.00;34.67;;;;;16.00;71.66;101331.66;5081206;27;62390;-59
2021/06/23 02:24:08;;;;;;;;;39.33;33.33;;;;;16.00;71.38;101338.88;5081760;27;45844;-59
2021/06/23 02:26:34;;;;;;;;;35.33;33.67;;;;;15.99;71.85;101331.84;5080777;28;45396;-60
2021/06/23 02:29:00;;;;;;;;;44.67;37.00;;;;;15.98;71.55;101336.38;5081694;27;45334;-59
2021/06/23 02:31:26;;;;;;;;;41.67;35.33;;;;;15.99;71.38;101331.84;5115475;27;45479;-59
2021/06/23 02:33:52;;;;;;;;;42.67;38.00;;;;;15.99;71.26;101332.69;5083986;27;46121;-59
2021/06/23 02:36:17;;;;;;;;;38.67;34.67;;;;;15.99;71.12;101337.22;5100939;27;45363;-59
2021/06/23 02:38:43;;;;;;;;;40.00;36.00;;;;;15.98;71.58;101341.75;5101482;27;57986;-59
2021/06/23 02:41:08;;;;;;;;;34.33;33.67;;;;;15.98;71.64;101344.41;5100765;27;45720;-60
2021/06/23 02:43:34;;;;;;;;;43.67;35.33;;;;;15.99;71.69;101353.31;5100510;27;56712;-60
2021/06/23 02:46:00;;;;;;;;;39.00;33.00;;;;;15.98;71.43;101354.34;5100152;27;60724;-59
2021/06/23 02:48:26;;;;;;;;;40.67;35.00;;;;;15.97;71.44;101356.19;5101015;27;45585;-59
2021/06/23 02:50:59;;;;;;;;;45.00;39.33;;;;;15.98;71.45;101355.13;5100108;27;45418;-60
2021/06/23 02:53:28;;;;;;;;;39.00;32.00;;;;;15.98;71.52;101344.41;5101541;27;46331;-60
2021/06/23 02:55:54;;;;;;;;;38.00;35.67;;;;;15.99;71.54;101353.31;5100516;27;45399;-60
2021/06/23 02:58:20;;;;;;;;;35.00;33.33;;;;;15.97;71.45;101350.81;5100785;27;45416;-60
2021/06/23 03:00:45;;;;;;;;;43.67;36.67;;;;;15.98;71.61;101348.97;5100276;27;45961;-59
2021/06/23 03:03:10;;;;;;;;;43.00;36.67;;;;;15.98;71.18;101344.41;5100105;27;60330;-59
2021/06/23 03:05:36;;;;;;;;;39.33;35.33;;;;;15.97;71.51;101349.97;5101338;27;56114;-60
2021/06/23 03:08:01;;;;;;;;;39.67;35.00;;;;;15.98;71.38;101351.66;5101423;27;50754;-59
2021/06/23 03:10:26;;;;;;;;;30.00;29.33;;;;;15.96;71.40;101337.56;5101055;27;64156;-59
2021/06/23 03:12:52;;;;;;;;;34.33;33.00;;;;;15.97;71.20;101352.66;5101283;27;56718;-59
2021/06/23 03:15:17;;;;;;;;;38.00;34.33;;;;;15.96;71.24;101341.13;5100716;27;62754;-59
2021/06/23 03:17:42;;;;;;;;;35.00;31.67;;;;;15.97;71.37;101348.13;5101031;27;58716;-59
2021/06/23 03:20:10;;;;;;;;;34.00;31.00;;;;;15.97;71.46;101342.78;5100978;27;59155;-60
2021/06/23 03:22:35;;;;;;;;;39.33;35.00;;;;;15.98;71.80;101340.94;5101340;27;46386;-59
2021/06/23 03:25:01;;;;;;;;;33.33;30.00;;;;;15.97;71.28;101342.78;5100904;27;58586;-59
2021/06/23 03:27:26;;;;;;;;;29.00;28.33;;;;;15.97;71.41;101345.44;5101640;27;45651;-59
2021/06/23 03:29:52;;;;;;;;;28.00;23.67;;;;;15.97;71.56;101348.13;5096093;27;45455;-59
2021/06/23 03:32:17;;;;;;;;;38.00;31.33;;;;;15.97;71.44;101347.28;5080178;27;66261;-60
2021/06/23 03:34:42;;;;;;;;;36.67;32.67;;;;;15.96;71.58;101349.16;5080190;27;61942;-60
2021/06/23 03:37:08;;;;;;;;;33.33;31.67;;;;;15.96;71.34;101349.16;5080137;27;62774;-60
2021/06/23 03:39:34;;;;;;;;;32.33;30.33;;;;;15.96;71.23;101346.50;5080606;28;45350;-59
2021/06/23 03:41:59;;;;;;;;;31.33;29.33;;;;;15.95;71.50;101347.47;5080779;27;45769;-60
2021/06/23 03:44:24;;;;;;;;;30.67;28.00;;;;;15.97;71.49;101353.50;5080539;27;45393;-59
2021/06/23 03:46:52;;;;;;;;;34.00;32.00;;;;;15.97;71.39;101358.84;5080754;27;45273;-60
2021/06/23 03:49:17;;;;;;;;;28.33;27.33;;;;;15.97;71.74;101358.00;5080661;27;45458;-59
2021/06/23 03:51:43;;;;;;;;;34.00;30.00;;;;;15.97;71.84;101360.69;5079623;27;59629;-60
2021/06/23 03:54:08;;;;;;;;;26.00;24.33;;;;;15.98;71.64;101357.00;5080584;27;45214;-59
2021/06/23 03:56:34;;;;;;;;;27.33;25.00;;;;;15.97;71.54;101360.69;5080548;27;45331;-59
2021/06/23 03:58:59;;;;;;;;;29.33;28.00;;;;;15.97;71.47;101358.00;5079742;27;59695;-59
2021/06/23 04:01:25;;;;;;;;;29.67;28.00;;;;;15.97;71.49;101364.22;5079623;27;46066;-60
2021/06/23 04:03:50;;;;;;;;;25.00;24.33;;;;;15.96;71.73;101361.69;5079959;27;53991;-60
2021/06/23 04:06:15;;;;;;;;;33.67;30.33;;;;;15.94;71.82;101361.91;5080068;27;47570;-60
2021/06/23 04:08:41;;;;;;;;;21.00;18.67;;;;;15.95;71.67;101360.84;5080202;27;45358;-60
2021/06/23 04:11:06;;;;;;;;;24.33;24.33;;;;;15.95;71.82;101363.53;5079582;27;60870;-60
2021/06/23 04:13:31;;;;;;;;;28.33;25.67;;;;;15.96;71.50;101367.06;5080088;27;48743;-60
2021/06/23 04:15:57;;;;;;;;;24.00;20.33;;;;;15.96;71.53;101359.88;5079664;27;53780;-59
2021/06/23 04:18:22;;;;;;;;;26.67;24.33;;;;;15.96;71.68;101367.94;5080168;27;45369;-60
2021/06/23 04:20:48;;;;;;;;;26.00;25.67;;;;;15.96;72.00;101367.94;5079450;27;65284;-59
2021/06/23 04:23:13;;;;;;;;;25.33;23.00;;;;;15.96;71.72;101373.28;5079951;27;45331;-59
2021/06/23 04:25:38;;;;;;;;;28.67;23.00;;;;;15.94;71.56;101372.63;5079401;27;63467;-59
2021/06/23 04:28:04;;;;;;;;;28.33;23.67;;;;;15.96;71.96;101380.47;5080074;27;45369;-59
2021/06/23 04:30:29;;;;;;;;;26.67;22.67;;;;;15.96;71.89;101381.34;5089563;27;46263;-59
2021/06/23 04:32:55;;;;;;;;;22.00;20.67;;;;;15.96;72.03;101389.38;5100451;27;45366;-60
2021/06/23 04:35:20;;;;;;;;;24.00;24.00;;;;;15.95;72.08;101384.97;5100367;27;45328;-59
2021/06/23 04:37:46;;;;;;;;;25.67;24.00;;;;;15.95;71.79;101395.72;5099687;27;63524;-60
2021/06/23 04:40:13;;;;;;;;;28.00;26.00;;;;;15.95;72.09;101387.66;5100105;27;46100;-59
2021/06/23 04:42:39;;;;;;;;;23.67;21.33;;;;;15.95;71.87;101394.91;5100382;27;45330;-59
2021/06/23 04:45:05;;;;;;;;;22.33;20.33;;;;;15.94;71.72;101390.53;5100258;27;45481;-59
2021/06/23 04:47:31;;;;;;;;;25.67;25.67;;;;;15.93;72.05;101397.78;5099978;27;45381;-60
2021/06/23 04:49:57;;;;;;;;;28.67;25.33;;;;;15.92;71.69;101389.91;5100049;27;45479;-59
2021/06/23 04:52:22;;;;;;;;;27.33;24.67;;;;;15.93;71.93;101392.41;5099825;27;45341;-59
2021/06/23 04:54:48;;;;;;;;;29.33;26.67;;;;;15.93;71.83;101386.22;5100340;27;45360;-59
2021/06/23 04:57:13;;;;;;;;;30.00;27.00;;;;;15.93;72.24;101386.22;5100033;27;45439;-60
2021/06/23 04:59:38;;;;;;;;;29.00;26.33;;;;;15.93;71.98;101391.56;5099677;27;45964;-59
2021/06/23 05:02:04;;;;;;;;;27.67;23.33;;;;;15.93;72.24;101389.72;5099934;27;45354;-60
2021/06/23 05:04:29;;;;;;;;;30.33;27.00;;;;;15.94;71.87;101391.38;5099677;27;51989;-59
2021/06/23 05:06:55;;;;;;;;;29.33;28.67;;;;;15.93;71.79;101395.09;5099723;27;45351;-60
2021/06/23 05:09:20;;;;;;;;;26.00;24.67;;;;;15.94;71.75;101399.41;5099595;27;53776;-60
2021/06/23 05:11:45;;;;;;;;;25.00;23.67;;;;;15.95;71.78;101398.38;5099867;27;45308;-59
2021/06/23 05:14:11;;;;;;;;;30.33;25.33;;;;;15.94;71.82;101399.41;5102979;27;45240;-59
2021/06/23 05:16:37;;;;;;;;;26.67;19.67;;;;;15.95;71.61;101398.38;5103553;27;45307;-59
2021/06/23 05:19:03;;;;;;;;;19.00;19.00;;;;;15.94;71.86;101410.16;5099953;27;47137;-60
2021/06/23 05:21:32;;;;;;;;;21.00;20.67;;;;;15.95;72.21;101406.44;5082781;27;45263;-59
2021/06/23 05:23:57;;;;;;;;;22.33;21.33;;;;;15.95;71.67;101408.31;5083039;27;45240;-59
2021/06/23 05:26:22;;;;;;;;;25.00;20.00;;;;;15.95;71.96;101409.13;5082189;27;63331;-60
2021/06/23 05:28:48;;;;;;;;;27.33;22.67;;;;;15.95;72.04;101411.78;5082663;27;45362;-59
2021/06/23 05:31:13;;;;;;;;;20.00;17.67;;;;;15.96;71.59;101418.00;5098862;27;45329;-59
2021/06/23 05:33:39;;;;;;;;;25.33;23.67;;;;;15.96;71.79;101418.00;5102890;27;55135;-59
2021/06/23 05:36:04;;;;;;;;;21.67;20.33;;;;;15.95;71.68;101414.47;5100233;27;58476;-60
2021/06/23 05:38:29;;;;;;;;;20.67;17.67;;;;;15.96;72.10;101418.00;5082225;27;45289;-59
2021/06/23 05:40:55;;;;;;;;;22.67;21.67;;;;;15.96;71.94;101413.50;5082649;28;45317;-60
2021/06/23 05:43:20;;;;;;;;;26.00;22.00;;;;;15.96;71.82;101412.63;5082786;28;45280;-59
2021/06/23 05:45:46;;;;;;;;;29.00;25.00;;;;;15.96;71.82;101418.00;5082406;28;45263;-60
2021/06/23 05:48:11;;;;;;;;;23.67;20.67;;;;;15.96;71.66;101420.69;5081640;28;60619;-60
2021/06/23 05:50:38;;;;;;;;;21.67;21.33;;;;;15.94;71.56;101418.19;5081724;28;62871;-59
2021/06/23 05:53:03;;;;;;;;;26.00;24.00;;;;;15.93;71.79;101416.53;5082570;27;45289;-59
2021/06/23 05:55:28;;;;;;;;;21.33;20.33;;;;;15.94;71.51;101426.22;5081840;27;60663;-60
2021/06/23 05:57:54;;;;;;;;;17.33;14.67;;;;;15.95;71.54;101427.06;5080937;28;70214;-60
2021/06/23 06:00:21;;;;;;;;;26.67;24.33;;;;;15.94;71.67;101425.38;5081340;27;45479;-60
2021/06/23 06:02:46;;;;;;;;;24.67;23.33;;;;;15.94;72.01;101426.22;5082389;28;45408;-60
2021/06/23 06:05:12;;;;;;;;;23.67;21.33;;;;;15.95;71.91;101425.19;5081719;27;45459;-60
2021/06/23 06:07:38;;;;;;;;;19.00;18.00;;;;;15.96;71.77;101428.72;5082043;28;45363;-60
2021/06/23 06:10:03;;;;;;;;;20.67;16.67;;;;;15.97;71.88;101439.28;5081724;28;57903;-60
2021/06/23 06:12:29;;;;;;;;;17.33;15.00;;;;;15.97;71.35;101441.97;5082154;28;45312;-60
2021/06/23 06:14:55;;;;;;;;;20.00;15.67;;;;;15.97;71.50;101441.97;5081325;28;66072;-60
2021/06/23 06:17:20;;;;;;;;;23.00;20.67;;;;;15.99;71.72;101445.28;5081427;27;46846;-60
2021/06/23 06:19:45;;;;;;;;;26.00;21.67;;;;;16.00;71.66;101456.81;5081610;28;45325;-61
2021/06/23 06:22:11;;;;;;;;;23.67;21.33;;;;;16.01;71.66;101453.94;5081527;28;53551;-61
2021/06/23 06:24:36;;;;;;;;;23.67;21.67;;;;;16.01;71.27;101458.47;5081176;28;45484;-60
2021/06/23 06:27:02;;;;;;;;;24.33;16.67;;;;;16.00;71.38;101456.81;5080322;27;66630;-61
2021/06/23 06:29:27;;;;;;;;;19.67;19.00;;;;;16.00;71.45;101459.50;5069603;28;45330;-60
2021/06/23 06:31:52;;;;;;;;;23.00;21.33;;;;;15.98;71.37;101462.38;5081507;27;51255;-59
2021/06/23 06:34:18;;;;;;;;;19.67;18.67;;;;;15.95;71.39;101462.72;5081121;27;69899;-59
2021/06/23 06:36:43;;;;;;;;;25.33;23.00;;;;;15.95;71.38;101465.41;5069674;27;52445;-59
2021/06/23 06:39:08;;;;;;;;;21.67;21.67;;;;;15.94;71.23;101469.13;5060110;28;45352;-60
2021/06/23 06:41:34;;;;;;;;;25.33;24.33;;;;;15.95;71.45;101469.97;5059335;28;45336;-59
2021/06/23 06:43:59;;;;;;;;;24.00;22.67;;;;;15.90;71.20;101474.03;5059728;28;62757;-59
2021/06/23 06:46:25;;;;;;;;;21.67;20.33;;;;;15.91;70.93;101469.50;5063626;28;47190;-60
2021/06/23 06:48:51;;;;;;;;;22.00;20.33;;;;;15.90;71.30;101473.22;5059841;28;45675;-60
2021/06/23 06:51:16;;;;;;;;;27.67;21.67;;;;;15.89;71.28;101479.56;5059612;28;45966;-60
2021/06/23 06:53:41;;;;;;;;;22.33;22.33;;;;;15.85;70.82;101476.47;5059823;28;62701;-60
2021/06/23 06:56:07;;;;;;;;;22.67;20.33;;;;;15.83;70.83;101477.69;5060798;28;46197;-60
2021/06/23 06:58:32;;;;;;;;;30.67;26.67;;;;;15.78;71.30;101476.38;5059895;28;59234;-58
2021/06/23 07:00:58;;;;;;;;;32.00;26.67;;;;;15.78;71.04;101475.56;5059540;28;56782;-59
2021/06/23 07:03:23;;;;;;;;;29.00;24.67;;;;;15.77;71.44;101485.44;5059546;28;60540;-58
2021/06/23 07:05:48;;;;;;;;;26.67;24.33;;;;;15.76;71.27;101478.44;5059629;28;61224;-58
2021/06/23 07:08:14;;;;;;;;;46.33;40.33;;;;;15.75;71.59;101479.44;5060272;28;62352;-58
2021/06/23 07:10:39;;;;;;;;;60.00;46.75;;;;;15.76;71.58;101483.81;5060692;28;45983;-58
2021/06/23 07:13:04;;;;;;;;;33.33;27.33;;;;;15.75;71.58;101484.00;5059880;28;62504;-58
2021/06/23 07:15:30;;;;;;;;;25.67;24.33;;;;;15.75;71.54;101484.00;5060311;28;46076;-58
2021/06/23 07:17:57;;;;;;;;;27.67;25.00;;;;;15.73;71.29;101488.69;5060433;28;45314;-58
2021/06/23 07:20:22;;;;;;;;;27.67;26.67;;;;;15.71;71.61;101491.56;5060856;28;45319;-58
2021/06/23 07:22:48;;;;;;;;;29.67;24.33;;;;;15.71;71.71;101493.44;5059661;28;62214;-59
2021/06/23 07:25:13;;;;;;;;;24.00;23.00;;;;;15.72;71.69;101495.09;5060660;28;46886;-58
2021/06/23 07:27:39;;;;;;;;;30.00;26.67;;;;;15.72;71.51;101498.59;5059753;28;45439;-58
2021/06/23 07:30:05;;;;;;;;;33.67;29.00;;;;;15.72;71.80;101495.94;5060558;28;54340;-58
2021/06/23 07:32:54;;;;;;;;;33.33;28.33;;;;;15.73;71.72;101494.06;5059673;28;45453;-58
2021/06/23 07:38:00;;;;;;;;;28.00;24.00;;;;;15.74;71.47;101493.88;5057712;28;45327;-58
2021/06/23 07:43:13;;;;;;;;;33.67;30.00;;;;;15.77;71.26;101498.84;5060091;28;45296;-58
2021/06/23 07:45:42;;;;;;;;;37.00;33.00;;;;;15.77;71.37;101496.16;5059910;28;47097;-57
2021/06/23 07:48:08;;;;;;;;;32.67;31.67;;;;;15.77;71.43;101496.16;5059965;28;45484;-58
2021/06/23 07:50:40;;;;;;;;;27.00;24.33;;;;;15.78;71.19;101495.13;5060177;28;45245;-57
2021/06/23 07:53:16;;;;;;;;;28.33;24.33;;;;;15.78;71.32;101500.50;5059286;28;45551;-58
2021/06/23 07:55:46;;;;;;;;;35.33;31.00;;;;;15.78;71.52;101495.13;5059456;28;46059;-59
2021/06/23 08:11:21;;;;;;;;;25.33;22.33;;;;;15.89;71.31;101495.66;5059615;28;45616;-57
2021/06/23 08:13:47;;;;;;;;;26.00;22.67;;;;;15.90;71.07;101500.00;5059165;28;45947;-56
2021/06/23 08:16:13;;;;;;;;;28.67;27.67;;;;;15.93;71.44;101502.31;5058338;28;65375;-57
2021/06/23 08:18:38;;;;;;;;;29.00;27.67;;;;;15.95;71.35;101508.28;5058972;28;45379;-59
2021/06/23 08:21:03;;;;;;;;;28.67;26.00;;;;;15.97;71.33;101500.09;5060048;28;45312;-57
2021/06/23 08:23:29;;;;;;;;;32.67;26.33;;;;;15.97;71.38;101511.66;5058866;28;45465;-56
2021/06/23 08:25:54;;;;;;;;;21.00;20.00;;;;;16.00;71.24;101505.06;5058939;28;45408;-56
2021/06/23 08:28:20;;;;;;;;;24.67;23.33;;;;;16.00;71.34;101505.06;5058631;28;50857;-56
2021/06/23 08:30:45;;;;;;;;;26.00;23.33;;;;;16.00;71.07;101502.41;5061342;28;45373;-57
2021/06/23 08:33:11;;;;;;;;;27.67;24.67;;;;;16.02;71.41;101505.72;5058036;28;46367;-58
2021/06/23 08:35:36;;;;;;;;;24.33;23.67;;;;;16.02;70.70;101503.84;5059427;28;46213;-57
2021/06/23 08:38:01;;;;;;;;;30.00;28.00;;;;;15.98;70.76;101501.78;5058419;28;62351;-57
2021/06/23 08:40:27;;;;;;;;;28.67;27.00;;;;;15.93;71.04;101502.31;5059516;28;45365;-58
2021/06/23 08:42:52;;;;;;;;;27.67;23.00;;;;;15.88;70.54;101510.09;5058252;28;45525;-57
2021/06/23 08:45:18;;;;;;;;;27.67;26.33;;;;;15.83;70.80;101504.47;5058080;28;46732;-57
2021/06/23 08:47:44;;;;;;;;;23.00;22.00;;;;;15.76;71.22;101505.25;5058662;28;51379;-57
2021/06/23 08:50:21;;;;;;;;;24.67;22.00;;;;;15.73;71.19;101502.94;5059403;28;45455;-57
2021/06/23 08:52:46;;;;;;;;;28.00;27.67;;;;;15.71;71.42;101507.66;5059057;28;45278;-57
2021/06/23 08:55:12;;;;;;;;;28.33;26.33;;;;;15.69;71.58;101514.22;5059021;28;45859;-57
2021/06/23 08:57:38;;;;;;;;;25.00;22.67;;;;;15.70;71.73;101508.69;5057969;28;45328;-57
2021/06/23 09:00:05;;;;;;;;;31.00;27.33;;;;;15.74;71.66;101514.47;5059036;28;45271;-57
2021/06/23 09:02:31;;;;;;;;;27.33;25.00;;;;;15.76;71.66;101513.28;5058961;28;45370;-58
2021/06/23 09:04:59;;;;;;;;;24.33;23.00;;;;;15.80;71.68;101513.72;5057857;28;46012;-58
2021/06/23 09:07:49;;;;;;;;;27.67;26.67;;;;;15.84;71.56;101519.53;5058797;28;45298;-57
2021/06/23 09:10:20;;;;;;;;;29.33;25.33;;;;;15.85;71.69;101518.50;5059110;28;45348;-57
2021/06/23 09:13:01;;;;;;;;;32.00;25.67;;;;;15.86;71.92;101514.81;5058987;28;45464;-58
2021/06/23 09:15:49;;;;;;;;;31.33;25.67;;;;;15.88;71.39;101521.66;5058537;28;46262;-57
2021/06/23 09:18:17;;;;;;;;;30.00;27.67;;;;;15.90;71.49;101514.22;5058475;28;45322;-57
2021/06/23 09:20:43;;;;;;;;;20.67;20.67;;;;;15.92;71.39;101511.34;5058042;28;45547;-58
2021/06/23 09:23:08;;;;;;;;;24.00;22.00;;;;;15.95;71.38;101519.03;5057749;28;45445;-56
2021/06/23 09:25:38;;;;;;;;;30.00;27.00;;;;;15.98;71.70;101520.53;5057518;28;46140;-57
2021/06/23 09:28:04;;;;;;;;;28.00;24.67;;;;;16.00;71.60;101513.13;5058136;28;45325;-57
2021/06/23 09:30:37;;;;;;;;;28.33;22.67;;;;;16.03;71.42;101515.41;5059272;28;45436;-56
2021/06/23 09:33:22;;;;;;;;;30.00;28.33;;;;;16.04;71.41;101514.38;5057570;28;45374;-55
2021/06/23 09:35:58;;;;;;;;;32.00;32.00;;;;;16.05;71.12;101510.72;5058319;28;46634;-54
2021/06/23 09:38:31;;;;;;;;;27.33;26.00;;;;;16.07;71.41;101502.47;5058697;28;45336;-55
2021/06/23 09:40:57;;;;;;;;;24.33;23.33;;;;;16.08;71.33;101504.97;5058745;28;45356;-54
2021/06/23 09:43:22;;;;;;;;;26.33;25.00;;;;;16.10;71.91;101510.94;5057756;28;64896;-56
2021/06/23 09:45:52;;;;;;;;;28.00;26.33;;;;;16.16;71.62;101509.34;5057383;28;64545;-58
2021/06/23 09:48:17;;;;;;;;;32.33;29.67;;;;;16.21;71.33;101512.28;5058672;28;45374;-50
2021/06/23 09:50:43;;;;;;;;;27.00;24.67;;;;;16.27;71.45;101521.41;5057978;28;58032;-55
2021/06/23 09:53:12;;;;;;;;;30.00;28.33;;;;;16.30;71.20;101514.81;5056316;28;62671;-56
2021/06/23 09:55:46;;;;;;;;;31.00;29.00;;;;;16.32;70.79;101515.47;5058666;28;46156;-56
2021/06/23 09:58:20;;;;;;;;;32.33;30.00;;;;;16.35;70.58;101515.06;5058094;28;45411;-54
2021/06/23 10:01:06;;;;;;;;;28.33;24.33;;;;;16.35;70.40;101513.22;5061929;28;45473;-56
2021/06/23 10:03:37;;;;;;;;;23.00;22.67;;;;;16.34;70.59;101519.59;5061951;28;45473;-54
2021/06/23 10:06:22;;;;;;;;;37.67;32.00;;;;;16.37;70.95;101521.09;5061896;28;45303;-52
2021/06/23 10:08:47;;;;;;;;;29.33;24.67;;;;;16.39;70.90;101519.03;5061551;28;45264;-57
2021/06/23 10:11:13;;;;;;;;;26.67;23.67;;;;;16.40;70.40;101518.81;5061776;28;45290;-58
2021/06/23 10:13:39;;;;;;;;;21.00;20.67;;;;;16.41;70.39;101519.66;5061591;28;45385;-57
2021/06/23 10:16:04;;;;;;;;;30.67;27.33;;;;;16.43;70.11;101519.47;5059461;28;71161;-56
2021/06/23 10:18:30;;;;;;;;;27.67;23.00;;;;;16.44;70.03;101526.50;5060479;28;45327;-56
2021/06/23 10:20:55;;;;;;;;;23.00;20.67;;;;;16.43;70.07;101520.28;5060749;28;45227;-50
2021/06/23 10:23:21;;;;;;;;;25.33;24.00;;;;;16.43;70.55;101527.53;5043512;28;45374;-52
2021/06/23 10:25:46;;;;;;;;;23.33;21.33;;;;;16.46;69.93;101519.91;5059953;28;60213;-50
2021/06/23 10:28:11;;;;;;;;;23.67;22.33;;;;;16.46;70.34;101522.59;5059557;28;60386;-53
2021/06/23 10:30:37;;;;;;;;;27.00;24.33;;;;;16.48;70.30;101531.28;5054216;28;45448;-53
2021/06/23 10:33:02;;;;;;;;;25.33;23.00;;;;;16.49;70.22;101526.75;5080896;27;68962;-54
2021/06/23 10:35:28;;;;;;;;;22.67;22.33;;;;;16.49;70.00;101527.56;5081670;27;46238;-51
2021/06/23 10:37:53;;;;;;;;;28.33;25.33;;;;;16.51;70.28;101528.22;5081450;27;49530;-53
2021/06/23 10:40:19;;;;;;;;;30.00;26.67;;;;;16.50;69.98;101521.19;5097407;27;45404;-54
2021/06/23 10:42:44;;;;;;;;;31.33;25.00;;;;;16.53;70.26;101528.00;5096946;27;60114;-51
2021/06/23 10:45:10;;;;;;;;;30.67;30.33;;;;;16.55;70.10;101534.00;5081283;27;45958;-55
2021/06/23 10:47:46;;;;;;;;;28.33;26.00;;;;;16.57;69.63;101533.81;5081668;27;45295;-57
2021/06/23 10:50:27;;;;;;;;;27.67;26.33;;;;;16.58;69.87;101530.94;5081513;27;45365;-58
2021/06/23 10:52:52;;;;;;;;;25.33;24.67;;;;;16.61;70.25;101535.09;5080828;28;45352;-59
2021/06/23 10:55:20;;;;;;;;;29.00;24.67;;;;;16.64;70.41;101540.06;5081134;27;54024;-59
2021/06/23 10:57:47;;;;;;;;;28.00;21.00;;;;;16.66;70.00;101543.38;5062303;27;45450;-59
2021/06/23 11:00:18;;;;;;;;;26.33;26.33;;;;;16.71;71.01;101540.09;5060252;28;45508;-59
2021/06/23 11:03:08;;;;;;;;;27.67;25.67;;;;;16.75;69.97;101539.53;5060887;28;45899;-58
2021/06/23 11:05:38;;;;;;;;;33.67;27.33;;;;;16.76;69.37;101545.72;5078517;28;46089;-58
2021/06/23 11:08:33;;;;;;;;;31.00;27.00;;;;;16.78;69.79;101549.88;5080816;28;45513;-59
2021/06/23 11:11:06;;;;;;;;;27.00;24.33;;;;;16.81;70.26;101561.22;5076288;28;45329;-58
2021/06/23 11:13:33;;;;;;;;;30.33;29.00;;;;;16.87;70.25;101557.75;5080609;28;45441;-58
2021/06/23 11:15:59;;;;;;;;;25.33;22.00;;;;;16.89;69.20;101555.72;5080995;28;46507;-58
2021/06/23 11:18:50;;;;;;;;;22.00;20.33;;;;;16.87;69.97;101560.44;5080892;28;45514;-57
2021/06/23 11:21:17;;;;;;;;;29.67;25.67;;;;;16.89;69.38;101566.47;5077577;28;64751;-58
2021/06/23 11:23:44;;;;;;;;;26.33;25.00;;;;;16.89;69.13;101566.47;5079520;28;45321;-58
2021/06/23 11:26:29;;;;;;;;;31.00;26.00;;;;;16.89;69.41;101567.28;5080615;28;46342;-58
2021/06/23 11:29:10;;;;;;;;;25.00;18.00;;;;;16.90;69.68;101568.09;5076507;28;45528;-58